createdAt,value
2023-04-07T00:02:35.413Z,98950.05
2023-04-07T00:06:34.361Z,98949.84
2023-04-07T00:10:32.398Z,98941.48
2023-04-07T00:14:30.360Z,98944.42
2023-04-07T00:18:28.503Z,98938.92
2023-04-07T00:22:26.398Z,98938.35
2023-04-07T00:26:24.521Z,98934.08
2023-04-07T00:30:23.504Z,98938.41
2023-04-07T00:34:21.372Z,98933.43
2023-04-07T00:38:19.366Z,98932.70
2023-04-07T00:42:18.342Z,98935.98
2023-04-07T00:46:16.314Z,98938.23
2023-04-07T00:50:14.530Z,98933.55
2023-04-07T00:54:12.302Z,98929.50
2023-04-07T00:58:11.400Z,98921.41
2023-04-07T01:02:22.527Z,98924.91
2023-04-07T01:06:22.308Z,98920.45
2023-04-07T01:10:21.301Z,98921.23
2023-04-07T01:14:26.290Z,98918.31
2023-04-07T01:18:36.295Z,98917.43
2023-04-07T01:22:41.352Z,98915.77
2023-04-07T01:26:49.271Z,98910.20
2023-04-07T01:30:50.265Z,98919.20
2023-04-07T01:34:49.255Z,98914.70
2023-04-07T01:38:48.270Z,98912.59
2023-04-07T01:42:48.362Z,98914.63
2023-04-07T01:46:46.330Z,98912.29
2023-04-07T01:50:44.313Z,98911.27
2023-04-07T01:54:43.371Z,98907.33
2023-04-07T01:58:41.297Z,98907.52
2023-04-07T02:02:41.512Z,98900.30
2023-04-07T02:06:45.222Z,98901.38
2023-04-07T02:10:44.252Z,98897.90
2023-04-07T02:14:43.270Z,98895.11
2023-04-07T02:18:42.220Z,98892.36
2023-04-07T02:22:40.193Z,98895.47
2023-04-07T02:26:38.181Z,98898.89
2023-04-07T02:30:36.202Z,98903.55
2023-04-07T02:34:34.272Z,98896.73
2023-04-07T02:38:32.250Z,98895.62
2023-04-07T02:42:30.233Z,98897.02
2023-04-07T02:46:29.317Z,98896.55
2023-04-07T02:50:27.206Z,98901.88
2023-04-07T02:54:25.184Z,98897.59
2023-04-07T02:58:24.273Z,98892.08
2023-04-07T03:02:22.529Z,98895.54
2023-04-07T03:06:20.142Z,98898.23
2023-04-07T03:10:25.194Z,98895.88
2023-04-07T03:14:23.269Z,98895.80
2023-04-07T03:18:21.100Z,98892.52
2023-04-07T03:22:24.162Z,98893.34
2023-04-07T03:26:22.223Z,98894.17
2023-04-07T03:30:22.151Z,98894.39
2023-04-07T03:34:20.132Z,98894.06
2023-04-07T03:38:18.210Z,98895.02
2023-04-07T03:42:18.064Z,98888.39
2023-04-07T03:46:20.169Z,98892.02
2023-04-07T03:50:18.064Z,98897.23
2023-04-07T03:54:22.070Z,98891.09
2023-04-07T03:58:20.054Z,98890.73
2023-04-07T04:02:18.304Z,98892.10
2023-04-07T04:06:17.052Z,98887.45
2023-04-07T04:10:15.114Z,98891.34
2023-04-07T04:14:15.173Z,98889.29
2023-04-07T04:18:17.250Z,98893.38
2023-04-07T04:22:16.024Z,98896.05
2023-04-07T04:26:17.098Z,98897.77
2023-04-07T04:30:15.084Z,98896.41
2023-04-07T04:34:19.100Z,98899.91
2023-04-07T04:38:19.134Z,98900.81
2023-04-07T04:42:40.054Z,98901.30
2023-04-07T04:46:38.056Z,98899.21
2023-04-07T04:50:36.019Z,98899.73
2023-04-07T04:54:36.028Z,98904.65
2023-04-07T04:58:35.103Z,98905.36
2023-04-07T05:02:33.095Z,98902.67
2023-04-07T05:06:31.022Z,98907.81
2023-04-07T05:10:32.050Z,98910.42
2023-04-07T05:14:30.968Z,98908.18
2023-04-07T05:18:30.962Z,98903.11
2023-04-07T05:22:29.210Z,98901.42
2023-04-07T05:26:35.025Z,98907.59
2023-04-07T05:30:33.092Z,98907.91
2023-04-07T05:34:30.939Z,98905.45
2023-04-07T05:38:28.948Z,98904.46
2023-04-07T05:42:32.968Z,98909.77
2023-04-07T05:46:32.075Z,98910.84
2023-04-07T05:50:30.051Z,98915.72
2023-04-07T05:54:29.926Z,98915.33
2023-04-07T05:58:28.988Z,98917.49
2023-04-07T06:02:06.725Z,98917.70
2023-04-07T06:05:31.441Z,98919.98
2023-04-07T06:08:55.570Z,98920.17
2023-04-07T06:12:20.646Z,98920.30
2023-04-07T06:15:45.892Z,98919.16
2023-04-07T06:19:09.876Z,98926.91
2023-04-07T06:22:33.861Z,98927.40
2023-04-07T06:25:58.046Z,98925.67
2023-04-07T06:29:22.124Z,98929.80
2023-04-07T06:32:47.023Z,98929.60
2023-04-07T06:36:11.109Z,98936.61
2023-04-07T06:39:35.098Z,98932.78
2023-04-07T06:42:59.071Z,98933.52
2023-04-07T06:46:33.242Z,98936.09
2023-04-07T06:49:57.209Z,98937.41
2023-04-07T06:53:21.059Z,98935.66
2023-04-07T06:56:45.301Z,98940.88
2023-04-07T07:00:10.220Z,98940.50
2023-04-07T07:03:34.404Z,98943.41
2023-04-07T07:06:58.324Z,98950.34
2023-04-07T07:10:22.860Z,98945.50
2023-04-07T07:13:48.149Z,98953.86
2023-04-07T07:17:12.054Z,98953.36
2023-04-07T07:20:35.907Z,98949.27
2023-04-07T07:23:59.779Z,98954.45
2023-04-07T07:27:23.693Z,98957.55
2023-04-07T07:30:47.573Z,98962.17
2023-04-07T07:34:11.398Z,98972.54
2023-04-07T07:37:35.988Z,98978.78
2023-04-07T07:40:59.715Z,98995.86
2023-04-07T07:44:23.912Z,99001.09
2023-04-07T07:47:47.876Z,99013.32
2023-04-07T07:51:12.127Z,99022.52
2023-04-07T07:54:36.055Z,99027.95
2023-04-07T07:57:59.954Z,99037.73
2023-04-07T08:01:23.911Z,99040.17
2023-04-07T08:04:48.106Z,99045.67
2023-04-07T08:08:12.133Z,99044.88
2023-04-07T08:11:36.154Z,99043.98
2023-04-07T08:15:00.127Z,99049.44
2023-04-07T08:18:25.409Z,99048.44
2023-04-07T08:21:49.184Z,99053.73
2023-04-07T08:25:13.167Z,99049.08
2023-04-07T08:28:39.566Z,99055.48
2023-04-07T08:32:03.587Z,99057.41
2023-04-07T08:35:27.493Z,99059.04
2023-04-07T08:38:51.473Z,99063.67
2023-04-07T08:42:17.761Z,99065.45
2023-04-07T08:45:43.506Z,99071.46
2023-04-07T08:49:14.050Z,99068.46
2023-04-07T08:52:57.898Z,99070.96
2023-04-07T08:56:22.056Z,99078.55
2023-04-07T08:59:49.129Z,99078.91
2023-04-07T09:03:13.265Z,99073.64
2023-04-07T09:06:39.781Z,99079.17
2023-04-07T09:10:04.702Z,99078.60
2023-04-07T09:13:28.577Z,99085.64
2023-04-07T09:16:52.539Z,99086.49
2023-04-07T09:20:16.466Z,99082.16
2023-04-07T09:23:42.267Z,99081.89
2023-04-07T09:27:17.531Z,99082.95
2023-04-07T09:30:54.274Z,99078.89
2023-04-07T09:34:43.285Z,99079.39
2023-04-07T09:38:11.361Z,99080.95
2023-04-07T09:41:35.282Z,99082.85
2023-04-07T09:45:02.852Z,99084.61
2023-04-07T09:48:26.949Z,99088.57
2023-04-07T09:52:07.811Z,99098.96
2023-04-07T09:55:34.043Z,99095.29
2023-04-07T09:58:58.813Z,99098.40
2023-04-07T10:02:23.848Z,99102.02
2023-04-07T10:05:48.612Z,99109.47
2023-04-07T10:09:12.997Z,99103.27
2023-04-07T10:12:39.308Z,99112.14
2023-04-07T10:16:08.609Z,99112.46
2023-04-07T10:19:34.710Z,99115.46
2023-04-07T10:23:09.512Z,99120.88
2023-04-07T10:26:37.020Z,99122.50
2023-04-07T10:30:02.402Z,99128.22
2023-04-07T10:33:46.644Z,99135.84
2023-04-07T10:37:14.327Z,99143.59
2023-04-07T10:40:39.197Z,99150.63
2023-04-07T10:44:04.267Z,99153.56
2023-04-07T10:47:28.369Z,99155.08
2023-04-07T10:51:08.542Z,99158.87
2023-04-07T10:54:32.500Z,99157.35
2023-04-07T10:58:15.237Z,99156.86
2023-04-07T11:01:39.092Z,99163.94
2023-04-07T11:05:03.886Z,99166.77
2023-04-07T11:08:35.061Z,99166.20
2023-04-07T11:11:58.938Z,99169.58
2023-04-07T11:15:23.508Z,99172.20
2023-04-07T11:18:49.026Z,99178.81
2023-04-07T11:25:48.895Z,99181.89
2023-04-07T11:29:13.640Z,99177.94
2023-04-07T11:32:38.537Z,99185.54
2023-04-07T11:36:04.041Z,99191.89
2023-04-07T11:39:31.262Z,99192.56
2023-04-07T11:42:56.691Z,99193.68
2023-04-07T11:46:21.740Z,99194.34
2023-04-07T11:49:47.440Z,99199.34
2023-04-07T11:53:11.839Z,99201.73
2023-04-07T11:56:46.757Z,99199.83
2023-04-07T12:00:13.564Z,99206.33
2023-04-07T12:03:39.138Z,99207.27
2023-04-07T12:07:13.097Z,99210.63
2023-04-07T12:10:37.019Z,99210.23
2023-04-07T12:14:02.219Z,99215.09
2023-04-07T12:17:28.313Z,99229.15
2023-04-07T12:20:52.633Z,99230.48
2023-04-07T12:24:17.108Z,99231.55
2023-04-07T12:27:43.661Z,99237.45
2023-04-07T12:31:08.268Z,99240.67
2023-04-07T12:34:32.555Z,99238.55
2023-04-07T12:37:56.892Z,99240.85
2023-04-07T12:41:20.783Z,99240.14
2023-04-07T12:44:44.604Z,99237.38
2023-04-07T12:48:08.599Z,99242.84
2023-04-07T12:51:33.594Z,99246.34
2023-04-07T12:54:58.686Z,99249.43
2023-04-07T12:58:22.694Z,99255.29
2023-04-07T13:01:47.817Z,99255.48
2023-04-07T13:05:14.132Z,99257.42
2023-04-07T13:08:38.113Z,99264.95
2023-04-07T13:12:02.298Z,99261.42
2023-04-07T13:15:26.385Z,99265.30
2023-04-07T13:18:50.215Z,99266.20
2023-04-07T13:22:18.276Z,99264.34
2023-04-07T13:25:45.596Z,99272.45
2023-04-07T13:29:09.387Z,99273.55
2023-04-07T13:32:55.337Z,99274.77
2023-04-07T13:36:53.415Z,99275.55
2023-04-07T13:40:51.357Z,99280.14
2023-04-07T13:44:52.388Z,99281.64
2023-04-07T13:48:50.330Z,99279.55
2023-04-07T13:52:48.366Z,99282.60
2023-04-07T13:56:47.302Z,99285.59
2023-04-07T14:00:45.326Z,99282.83
2023-04-07T14:04:43.425Z,99286.59
2023-04-07T14:08:42.327Z,99296.79
2023-04-07T14:12:41.405Z,99304.16
2023-04-07T14:16:39.381Z,99307.33
2023-04-07T14:20:37.311Z,99314.69
2023-04-07T14:24:35.296Z,99321.95
2023-04-07T14:28:33.268Z,99329.17
2023-04-07T14:32:31.425Z,99331.77
2023-04-07T14:36:30.253Z,99336.58
2023-04-07T14:40:28.322Z,99336.45
2023-04-07T14:44:26.465Z,99338.18
2023-04-07T14:48:25.256Z,99341.20
2023-04-07T14:52:23.339Z,99339.48
2023-04-07T14:56:21.274Z,99349.29
2023-04-07T15:00:20.248Z,99350.15
2023-04-07T15:04:18.345Z,99354.67
2023-04-07T15:08:16.246Z,99358.86
2023-04-07T15:12:14.268Z,99357.05
2023-04-07T15:16:20.389Z,99362.41
2023-04-07T15:20:19.233Z,99359.59
2023-04-07T15:24:17.250Z,99365.13
2023-04-07T15:28:15.261Z,99369.71
2023-04-07T15:32:13.265Z,99372.59
2023-04-07T15:36:11.278Z,99375.73
2023-04-07T15:40:09.240Z,99384.83
2023-04-07T15:44:07.252Z,99392.14
2023-04-07T15:48:07.273Z,99394.52
2023-04-07T15:52:05.207Z,99403.20
2023-04-07T15:56:03.185Z,99408.81
2023-04-07T16:00:01.181Z,99413.48
2023-04-07T16:03:59.370Z,99420.41
2023-04-07T16:07:57.240Z,99427.84
2023-04-07T16:11:55.223Z,99435.69
2023-04-07T16:15:53.191Z,99439.83
2023-04-07T16:19:51.163Z,99438.99
2023-04-07T16:23:49.443Z,99444.27
2023-04-07T16:27:47.290Z,99448.14
2023-04-07T16:31:46.182Z,99454.04
2023-04-07T16:35:44.144Z,99465.63
2023-04-07T16:39:42.195Z,99480.73
2023-04-07T16:43:40.165Z,99486.03
2023-04-07T16:47:39.301Z,99494.56
2023-04-07T16:51:37.081Z,99498.23
2023-04-07T16:55:35.235Z,99507.39
2023-04-07T16:59:33.119Z,99520.14
2023-04-07T17:03:31.323Z,99530.36
2023-04-07T17:07:29.083Z,99532.29
2023-04-07T17:11:28.127Z,99540.96
2023-04-07T17:15:27.172Z,99548.10
2023-04-07T17:19:25.146Z,99552.73
2023-04-07T17:23:23.024Z,99556.73
2023-04-07T17:27:21.200Z,99558.44
2023-04-07T17:31:19.077Z,99567.96
2023-04-07T17:35:17.268Z,99576.89
2023-04-07T17:39:16.159Z,99585.14
2023-04-07T17:43:14.052Z,99591.98
2023-04-07T17:47:12.024Z,99599.44
2023-04-07T17:51:10.098Z,99605.81
2023-04-07T17:55:08.031Z,99612.17
2023-04-07T17:59:06.074Z,99621.86
2023-04-07T18:03:04.206Z,99632.00
2023-04-07T18:07:02.028Z,99633.80
2023-04-07T18:10:59.997Z,99636.37
2023-04-07T18:14:58.073Z,99640.97
2023-04-07T18:18:56.053Z,99639.95
2023-04-07T18:22:54.044Z,99641.70
2023-04-07T18:26:51.993Z,99650.22
2023-04-07T18:30:50.020Z,99652.02
2023-04-07T18:34:47.999Z,99652.28
2023-04-07T18:38:46.054Z,99653.58
2023-04-07T18:42:44.038Z,99664.67
2023-04-07T18:46:42.090Z,99671.69
2023-04-07T18:51:06.964Z,99673.13
2023-04-07T18:55:05.062Z,99674.63
2023-04-07T18:59:02.943Z,99679.73
2023-04-07T19:03:01.246Z,99682.59
2023-04-07T19:06:59.997Z,99685.70
2023-04-07T19:10:57.969Z,99693.15
2023-04-07T19:14:55.974Z,99698.13
2023-04-07T19:18:53.985Z,99697.52
2023-04-07T19:22:53.011Z,99703.63
2023-04-07T19:26:50.941Z,99702.54
2023-04-07T19:30:48.931Z,99707.00
2023-04-07T19:34:46.969Z,99715.44
2023-04-07T19:38:44.888Z,99717.75
2023-04-07T19:42:45.050Z,99717.63
2023-04-07T19:46:42.873Z,99723.68
2023-04-07T19:50:47.919Z,99728.55
2023-04-07T19:54:45.948Z,99733.96
2023-04-07T19:58:44.950Z,99736.83
2023-04-07T20:02:43.007Z,99743.14
2023-04-07T20:06:42.864Z,99744.76
2023-04-07T20:10:40.936Z,99749.02
2023-04-07T20:14:38.859Z,99756.77
2023-04-07T20:18:37.835Z,99759.98
2023-04-07T20:22:35.863Z,99763.86
2023-04-07T20:26:33.827Z,99765.09
2023-04-07T20:30:31.889Z,99766.63
2023-04-07T20:34:29.845Z,99769.17
2023-04-07T20:38:27.976Z,99774.35
2023-04-07T20:42:25.901Z,99776.38
2023-04-07T20:46:23.913Z,99783.77
2023-04-07T20:50:21.851Z,99786.45
2023-04-07T20:54:19.969Z,99784.39
2023-04-07T20:58:17.833Z,99789.96
2023-04-07T21:02:16.238Z,99780.93
2023-04-07T21:06:13.734Z,99785.11
2023-04-07T21:10:11.890Z,99785.80
2023-04-07T21:14:09.831Z,99784.48
2023-04-07T21:18:07.981Z,99779.33
2023-04-07T21:22:05.770Z,99782.90
2023-04-07T21:26:03.761Z,99787.90
2023-04-07T21:30:01.848Z,99790.02
2023-04-07T21:33:59.818Z,99790.48
2023-04-07T21:37:57.745Z,99794.13
2023-04-07T21:41:55.778Z,99792.55
2023-04-07T21:45:53.719Z,99794.16
2023-04-07T21:49:53.037Z,99793.51
2023-04-07T21:53:50.847Z,99798.53
2023-04-07T21:57:49.797Z,99795.22
2023-04-07T22:01:47.816Z,99793.80
2023-04-07T22:05:45.815Z,99795.38
2023-04-07T22:09:43.781Z,99794.27
2023-04-07T22:13:41.693Z,99790.70
2023-04-07T22:17:39.807Z,99788.05
2023-04-07T22:21:37.719Z,99789.99
2023-04-07T22:25:35.670Z,99790.80
2023-04-07T22:29:33.789Z,99790.02
2023-04-07T22:33:31.769Z,99784.21
2023-04-07T22:37:29.692Z,99786.08
2023-04-07T22:41:27.627Z,99784.59
2023-04-07T22:45:25.660Z,99782.73
2023-04-07T22:49:23.673Z,99781.49
2023-04-07T22:53:21.684Z,99783.99
2023-04-07T22:57:19.618Z,99789.91
2023-04-07T23:01:17.757Z,99791.83
2023-04-07T23:05:16.709Z,99799.38
2023-04-07T23:09:14.693Z,99799.42
2023-04-07T23:13:15.059Z,99796.40
2023-04-07T23:17:12.602Z,99792.18
2023-04-07T23:21:10.570Z,99798.37
2023-04-07T23:25:08.580Z,99799.09
2023-04-07T23:29:06.636Z,99796.66
2023-04-07T23:33:04.751Z,99799.96
2023-04-07T23:37:02.597Z,99800.80
2023-04-07T23:41:00.571Z,99800.92
2023-04-07T23:44:59.688Z,99800.19
2023-04-07T23:48:57.653Z,99798.11
2023-04-07T23:52:55.630Z,99800.50
2023-04-07T23:56:53.616Z,99795.56
